createdAt,value
2023-04-02T00:00:03.527Z,26.57
2023-04-02T00:01:03.523Z,26.57
2023-04-02T00:02:03.573Z,26.54
2023-04-02T00:03:03.617Z,26.60
2023-04-02T00:04:03.621Z,26.50
2023-04-02T00:05:03.521Z,26.47
2023-04-02T00:06:03.551Z,26.54
2023-04-02T00:07:03.519Z,26.52
2023-04-02T00:08:03.537Z,26.58
2023-04-02T00:09:03.519Z,26.55
2023-04-02T00:10:03.528Z,26.54
2023-04-02T00:11:03.519Z,26.55
2023-04-02T00:12:03.528Z,26.54
2023-04-02T00:13:03.525Z,26.58
2023-04-02T00:14:03.529Z,26.57
2023-04-02T00:15:03.520Z,26.52
2023-04-02T00:16:03.617Z,26.62
2023-04-02T00:17:03.517Z,26.57
2023-04-02T00:18:03.564Z,26.51
2023-04-02T00:19:03.518Z,26.54
2023-04-02T00:20:03.524Z,26.52
2023-04-02T00:21:03.515Z,26.57
2023-04-02T00:22:03.545Z,26.55
2023-04-02T00:23:03.514Z,26.55
2023-04-02T00:24:03.521Z,26.54
2023-04-02T00:25:03.541Z,26.55
2023-04-02T00:26:03.521Z,26.54
2023-04-02T00:27:03.512Z,26.60
2023-04-02T00:28:03.528Z,26.52
2023-04-02T00:29:03.517Z,26.54
2023-04-02T00:30:03.520Z,26.55
2023-04-02T00:31:03.517Z,26.57
2023-04-02T00:32:03.525Z,26.55
2023-04-02T00:33:03.522Z,26.52
2023-04-02T00:34:03.521Z,26.65
2023-04-02T00:35:03.533Z,26.54
2023-04-02T00:36:03.570Z,26.60
2023-04-02T00:37:03.520Z,26.52
2023-04-02T00:38:03.548Z,26.60
2023-04-02T00:39:03.511Z,26.63
2023-04-02T00:40:03.517Z,26.52
2023-04-02T00:41:03.508Z,26.52
2023-04-02T00:42:03.517Z,26.54
2023-04-02T00:43:03.512Z,26.54
2023-04-02T00:44:03.514Z,26.57
2023-04-02T00:45:03.509Z,26.55
2023-04-02T00:46:03.560Z,26.54
2023-04-02T00:47:03.506Z,26.55
2023-04-02T00:48:03.549Z,26.52
2023-04-02T00:49:03.506Z,26.57
2023-04-02T00:50:03.522Z,26.51
2023-04-02T00:51:03.510Z,26.55
2023-04-02T00:52:03.539Z,26.51
2023-04-02T00:53:03.510Z,26.57
2023-04-02T00:54:03.541Z,26.54
2023-04-02T00:55:03.524Z,26.63
2023-04-02T00:56:03.511Z,26.54
2023-04-02T00:57:03.520Z,26.55
2023-04-02T00:58:03.511Z,26.57
2023-04-02T00:59:03.504Z,26.54
2023-04-02T01:00:03.522Z,26.48
2023-04-02T01:01:03.574Z,26.55
2023-04-02T01:02:03.510Z,26.57
2023-04-02T01:03:03.608Z,26.55
2023-04-02T01:04:03.515Z,26.57
2023-04-02T01:05:03.559Z,26.57
2023-04-02T01:06:03.507Z,26.48
2023-04-02T01:07:03.499Z,26.57
2023-04-02T01:08:03.508Z,26.57
2023-04-02T01:09:03.498Z,26.55
2023-04-02T01:10:03.531Z,26.48
2023-04-02T01:11:03.504Z,26.54
2023-04-02T01:12:03.514Z,26.51
2023-04-02T01:13:03.497Z,26.55
2023-04-02T01:14:03.503Z,26.60
2023-04-02T01:15:03.496Z,26.54
2023-04-02T01:16:03.545Z,26.52
2023-04-02T01:17:03.497Z,26.62
2023-04-02T01:18:03.531Z,26.62
2023-04-02T01:19:03.495Z,26.55
2023-04-02T01:20:03.504Z,26.54
2023-04-02T01:21:03.503Z,26.54
2023-04-02T01:22:03.501Z,26.55
2023-04-02T01:23:03.490Z,26.50
2023-04-02T01:24:03.498Z,26.58
2023-04-02T01:25:03.495Z,26.48
2023-04-02T01:26:03.519Z,26.58
2023-04-02T01:27:03.492Z,26.52
2023-04-02T01:28:03.495Z,26.57
2023-04-02T01:29:03.498Z,26.60
2023-04-02T01:30:03.504Z,26.54
2023-04-02T01:31:03.533Z,26.52
2023-04-02T01:32:03.497Z,26.62
2023-04-02T01:33:03.544Z,26.57
2023-04-02T01:34:03.503Z,26.54
2023-04-02T01:35:03.490Z,26.50
2023-04-02T01:36:03.503Z,26.52
2023-04-02T01:37:03.493Z,26.54
2023-04-02T01:38:03.501Z,26.52
2023-04-02T01:39:03.488Z,26.58
2023-04-02T01:40:03.495Z,26.52
2023-04-02T01:41:03.482Z,26.60
2023-04-02T01:42:03.518Z,26.54
2023-04-02T01:43:03.482Z,26.51
2023-04-02T01:44:03.493Z,26.54
2023-04-02T01:45:03.481Z,26.54
2023-04-02T01:46:03.491Z,26.52
2023-04-02T01:47:03.486Z,26.57
2023-04-02T01:48:03.491Z,26.54
2023-04-02T01:49:03.486Z,26.50
2023-04-02T01:50:03.488Z,26.57
2023-04-02T01:51:03.476Z,26.54
2023-04-02T01:52:03.488Z,26.57
2023-04-02T01:53:03.480Z,26.54
2023-04-02T01:54:03.504Z,26.60
2023-04-02T01:55:03.479Z,26.50
2023-04-02T01:56:03.482Z,26.58
2023-04-02T01:57:03.498Z,26.54
2023-04-02T01:58:03.514Z,26.57
2023-04-02T01:59:03.480Z,26.54
2023-04-02T02:00:03.481Z,26.54
2023-04-02T02:01:03.524Z,26.52
2023-04-02T02:02:03.531Z,26.63
2023-04-02T02:03:03.492Z,26.66
2023-04-02T02:04:03.492Z,26.52
2023-04-02T02:05:03.477Z,26.51
2023-04-02T02:06:03.489Z,26.52
2023-04-02T02:07:03.470Z,26.54
2023-04-02T02:08:03.477Z,26.57
2023-04-02T02:09:03.477Z,26.54
2023-04-02T02:10:03.488Z,26.52
2023-04-02T02:11:03.472Z,26.57
2023-04-02T02:12:03.476Z,26.55
2023-04-02T02:13:03.470Z,26.55
2023-04-02T02:14:03.507Z,26.52
2023-04-02T02:15:03.472Z,26.62
2023-04-02T02:16:03.504Z,26.55
2023-04-02T02:17:03.471Z,26.60
2023-04-02T02:18:03.531Z,26.51
2023-04-02T02:19:03.470Z,26.57
2023-04-02T02:20:03.476Z,26.57
2023-04-02T02:21:03.470Z,26.57
2023-04-02T02:22:03.483Z,26.48
2023-04-02T02:23:03.474Z,26.57
2023-04-02T02:24:03.477Z,26.51
2023-04-02T02:25:03.470Z,26.62
2023-04-02T02:26:03.480Z,26.55
2023-04-02T02:27:03.472Z,26.55
2023-04-02T02:28:03.480Z,26.55
2023-04-02T02:29:03.518Z,26.57
2023-04-02T02:30:03.494Z,26.55
2023-04-02T02:31:03.483Z,26.57
2023-04-02T02:32:03.537Z,26.57
2023-04-02T02:33:03.527Z,26.50
2023-04-02T02:34:03.465Z,26.62
2023-04-02T02:35:03.477Z,26.58
2023-04-02T02:36:03.546Z,26.51
2023-04-02T02:37:03.473Z,26.55
2023-04-02T02:38:03.465Z,26.50
2023-04-02T02:39:03.473Z,26.55
2023-04-02T02:40:03.466Z,26.51
2023-04-02T02:41:03.472Z,26.50
2023-04-02T02:42:03.470Z,26.58
2023-04-02T02:43:03.476Z,26.62
2023-04-02T02:44:03.462Z,26.51
2023-04-02T02:45:03.470Z,26.57
2023-04-02T02:46:03.504Z,26.57
2023-04-02T02:47:03.479Z,26.62
2023-04-02T02:48:03.506Z,26.55
2023-04-02T02:49:03.465Z,26.60
2023-04-02T02:50:03.461Z,26.52
2023-04-02T02:51:03.464Z,26.54
2023-04-02T02:52:03.465Z,26.54
2023-04-02T02:53:03.463Z,26.54
2023-04-02T02:54:03.457Z,26.52
2023-04-02T02:55:03.479Z,26.57
2023-04-02T02:56:03.458Z,26.55
2023-04-02T02:57:03.483Z,26.52
2023-04-02T02:58:03.460Z,26.54
2023-04-02T02:59:03.487Z,26.51
2023-04-02T03:00:03.469Z,26.60
2023-04-02T03:01:03.515Z,26.57
2023-04-02T03:02:03.478Z,26.55
2023-04-02T03:03:03.627Z,26.54
2023-04-02T03:04:03.590Z,26.58
2023-04-02T03:05:03.462Z,26.51
2023-04-02T03:06:03.452Z,26.65
2023-04-02T03:07:03.456Z,26.54
2023-04-02T03:08:03.448Z,26.54
2023-04-02T03:09:03.457Z,26.62
2023-04-02T03:10:03.449Z,26.62
2023-04-02T03:11:03.458Z,26.54
2023-04-02T03:12:03.597Z,26.54
2023-04-02T03:13:03.463Z,26.54
2023-04-02T03:14:03.467Z,26.52
2023-04-02T03:15:03.463Z,26.57
2023-04-02T03:16:03.487Z,26.57
2023-04-02T03:17:03.472Z,26.51
2023-04-02T03:18:03.488Z,26.51
2023-04-02T03:19:03.464Z,26.54
2023-04-02T03:20:03.449Z,26.54
2023-04-02T03:21:03.454Z,26.57
2023-04-02T03:22:03.444Z,26.57
2023-04-02T03:23:03.453Z,26.48
2023-04-02T03:24:03.445Z,26.62
2023-04-02T03:25:03.457Z,26.57
2023-04-02T03:26:03.443Z,26.57
2023-04-02T03:27:03.452Z,26.60
2023-04-02T03:28:03.452Z,26.62
2023-04-02T03:29:03.454Z,26.50
2023-04-02T03:30:03.454Z,26.54
2023-04-02T03:31:03.493Z,26.57
2023-04-02T03:32:03.442Z,26.51
2023-04-02T03:33:03.569Z,26.50
2023-04-02T03:34:03.471Z,26.55
2023-04-02T03:35:03.473Z,26.57
2023-04-02T03:36:03.466Z,26.55
2023-04-02T03:37:03.449Z,26.57
2023-04-02T03:38:03.444Z,26.51
2023-04-02T03:39:03.448Z,26.62
2023-04-02T03:40:03.443Z,26.52
2023-04-02T03:41:03.450Z,26.51
2023-04-02T03:42:03.448Z,26.55
2023-04-02T03:43:03.448Z,26.51
2023-04-02T03:44:03.442Z,26.60
2023-04-02T03:45:03.457Z,26.54
2023-04-02T03:46:03.504Z,26.62
2023-04-02T03:47:03.456Z,26.52
2023-04-02T03:48:03.464Z,26.52
2023-04-02T03:49:03.450Z,26.54
2023-04-02T03:50:03.467Z,26.51
2023-04-02T03:51:03.450Z,26.54
2023-04-02T03:52:03.438Z,26.62
2023-04-02T03:53:03.452Z,26.48
2023-04-02T03:54:03.440Z,26.57
2023-04-02T03:55:03.445Z,26.52
2023-04-02T03:56:03.433Z,26.54
2023-04-02T03:57:03.462Z,26.58
2023-04-02T03:58:03.463Z,26.57
2023-04-02T03:59:03.440Z,26.54
2023-04-02T04:00:03.436Z,26.52
2023-04-02T04:01:03.454Z,26.62
2023-04-02T04:02:03.519Z,26.54
2023-04-02T04:03:03.465Z,26.54
2023-04-02T04:04:03.440Z,26.63
2023-04-02T04:05:03.439Z,26.55
2023-04-02T04:06:03.453Z,26.55
2023-04-02T04:07:03.449Z,26.60
2023-04-02T04:08:03.430Z,26.55
2023-04-02T04:09:03.438Z,26.55
2023-04-02T04:10:03.428Z,26.57
2023-04-02T04:11:03.494Z,26.57
2023-04-02T04:12:03.434Z,26.62
2023-04-02T04:13:03.434Z,26.55
2023-04-02T04:14:03.429Z,26.52
2023-04-02T04:15:03.434Z,26.54
2023-04-02T04:16:03.466Z,26.50
2023-04-02T04:17:03.432Z,26.60
2023-04-02T04:18:03.489Z,26.55
2023-04-02T04:19:03.541Z,26.63
2023-04-02T04:20:03.424Z,26.57
2023-04-02T04:21:03.448Z,26.57
2023-04-02T04:22:03.446Z,26.52
2023-04-02T04:23:03.429Z,26.54
2023-04-02T04:24:03.431Z,26.57
2023-04-02T04:25:03.437Z,26.51
2023-04-02T04:26:03.427Z,26.50
2023-04-02T04:27:03.428Z,26.51
2023-04-02T04:28:03.422Z,26.55
2023-04-02T04:29:03.428Z,26.44
2023-04-02T04:30:03.421Z,26.44
2023-04-02T04:31:03.432Z,26.50
2023-04-02T04:32:03.450Z,26.51
2023-04-02T04:33:03.449Z,26.48
2023-04-02T04:34:03.422Z,26.48
2023-04-02T04:35:03.426Z,26.43
2023-04-02T04:36:03.727Z,26.55
2023-04-02T04:37:03.427Z,26.45
2023-04-02T04:38:03.440Z,26.45
2023-04-02T04:39:03.424Z,26.45
2023-04-02T04:40:03.425Z,26.37
2023-04-02T04:41:03.429Z,26.40
2023-04-02T04:42:03.464Z,26.44
2023-04-02T04:43:03.430Z,26.44
2023-04-02T04:44:03.417Z,26.43
2023-04-02T04:45:03.423Z,26.37
2023-04-02T04:46:03.467Z,26.47
2023-04-02T04:47:03.421Z,26.40
2023-04-02T04:48:03.454Z,26.44
2023-04-02T04:49:03.423Z,26.35
2023-04-02T04:50:03.413Z,26.40
2023-04-02T04:51:03.420Z,26.36
2023-04-02T04:52:03.413Z,26.33
2023-04-02T04:53:03.419Z,26.40
2023-04-02T04:54:03.438Z,26.39
2023-04-02T04:55:03.418Z,26.37
2023-04-02T04:56:18.217Z,26.35
2023-04-02T04:57:03.435Z,26.39
2023-04-02T04:58:03.408Z,26.33
2023-04-02T04:59:03.421Z,26.35
2023-04-02T05:00:03.407Z,26.25
2023-04-02T05:01:03.440Z,26.30
2023-04-02T05:02:03.406Z,26.25
2023-04-02T05:03:03.513Z,26.32
2023-04-02T05:04:03.404Z,26.32
2023-04-02T05:05:03.569Z,26.29
2023-04-02T05:06:03.417Z,26.30
2023-04-02T05:07:03.423Z,26.29
2023-04-02T05:08:03.407Z,26.32
2023-04-02T05:09:03.410Z,26.26
2023-04-02T05:10:03.424Z,26.26
2023-04-02T05:11:03.408Z,26.23
2023-04-02T05:12:03.402Z,26.32
2023-04-02T05:13:03.406Z,26.32
2023-04-02T05:14:03.403Z,26.32
2023-04-02T05:15:03.402Z,26.25
2023-04-02T05:16:03.413Z,26.32
2023-04-02T05:17:03.403Z,26.20
2023-04-02T05:18:03.427Z,26.29
2023-04-02T05:19:03.402Z,26.28
2023-04-02T05:20:03.394Z,26.20
2023-04-02T05:21:03.402Z,26.25
2023-04-02T05:22:03.393Z,26.23
2023-04-02T05:23:03.399Z,26.25
2023-04-02T05:24:03.395Z,26.30
2023-04-02T05:25:03.399Z,26.32
2023-04-02T05:26:03.415Z,26.39
2023-04-02T05:27:03.395Z,26.29
2023-04-02T05:28:03.393Z,26.32
2023-04-02T05:29:03.395Z,26.29
2023-04-02T05:30:03.393Z,26.25
2023-04-02T05:31:03.416Z,26.37
2023-04-02T05:32:03.386Z,26.39
2023-04-02T05:33:03.501Z,26.36
2023-04-02T05:34:03.387Z,26.37
2023-04-02T05:35:03.393Z,26.39
2023-04-02T05:36:03.411Z,26.32
2023-04-02T05:37:05.168Z,26.35
2023-04-02T05:38:03.398Z,26.39
2023-04-02T05:39:03.390Z,26.36
2023-04-02T05:40:03.385Z,26.39
2023-04-02T05:41:03.402Z,26.39
2023-04-02T05:42:03.420Z,26.39
2023-04-02T05:43:03.391Z,26.37
2023-04-02T05:44:03.386Z,26.39
2023-04-02T05:45:03.388Z,26.39
2023-04-02T05:46:03.382Z,26.40
2023-04-02T05:47:03.397Z,26.43
2023-04-02T05:48:03.413Z,26.48
2023-04-02T05:49:03.390Z,26.39
2023-04-02T05:50:03.385Z,26.47
2023-04-02T05:51:03.388Z,26.44
2023-04-02T05:52:03.387Z,26.48
2023-04-02T05:53:03.392Z,26.43
2023-04-02T05:54:03.378Z,26.37
2023-04-02T05:55:03.387Z,26.45
2023-04-02T05:56:03.377Z,26.48
2023-04-02T05:57:03.407Z,26.43
2023-04-02T05:58:29.517Z,26.44
2023-04-02T05:59:03.399Z,26.45
2023-04-02T06:00:03.382Z,26.36
2023-04-02T06:01:03.383Z,26.43
2023-04-02T06:02:03.587Z,26.50
2023-04-02T06:03:03.486Z,26.48
2023-04-02T06:04:03.396Z,26.44
2023-04-02T06:05:03.379Z,26.44
2023-04-02T06:06:03.370Z,26.48
2023-04-02T06:07:03.388Z,26.39
2023-04-02T06:08:03.380Z,26.45
2023-04-02T06:09:03.380Z,26.44
2023-04-02T06:10:03.399Z,26.40
2023-04-02T06:11:03.376Z,26.47
2023-04-02T06:12:03.520Z,26.47
2023-04-02T06:13:03.440Z,26.45
2023-04-02T06:14:03.390Z,26.47
2023-04-02T06:15:03.389Z,26.51
2023-04-02T06:16:03.367Z,26.44
2023-04-02T06:17:03.444Z,26.48
2023-04-02T06:18:03.445Z,26.43
2023-04-02T06:19:03.370Z,26.50
2023-04-02T06:20:03.372Z,26.48
2023-04-02T06:21:03.379Z,26.45
2023-04-02T06:22:03.366Z,26.47
2023-04-02T06:23:03.375Z,26.40
2023-04-02T06:24:03.359Z,26.47
2023-04-02T06:25:03.371Z,26.50
2023-04-02T06:26:03.363Z,26.48
2023-04-02T06:27:03.366Z,26.47
2023-04-02T06:28:03.360Z,26.50
2023-04-02T06:29:03.372Z,26.47
2023-04-02T06:30:03.393Z,26.47
2023-04-02T06:31:03.435Z,26.51
2023-04-02T06:32:03.363Z,26.50
2023-04-02T06:33:03.405Z,26.47
2023-04-02T06:34:03.358Z,26.48
2023-04-02T06:35:03.370Z,26.47
2023-04-02T06:36:03.398Z,26.47
2023-04-02T06:37:03.378Z,26.50
2023-04-02T06:38:03.358Z,26.54
2023-04-02T06:39:03.364Z,26.52
2023-04-02T06:40:03.360Z,26.45
2023-04-02T06:41:03.367Z,26.48
2023-04-02T06:42:03.362Z,26.47
2023-04-02T06:43:03.367Z,26.55
2023-04-02T06:44:03.366Z,26.44
2023-04-02T06:45:03.366Z,26.48
2023-04-02T06:46:03.422Z,26.51
2023-04-02T06:47:03.356Z,26.55
2023-04-02T06:48:03.389Z,26.51
2023-04-02T06:49:03.360Z,26.54
2023-04-02T06:50:03.363Z,26.55
2023-04-02T06:51:03.372Z,26.54
2023-04-02T06:52:03.392Z,26.58
2023-04-02T06:53:03.358Z,26.50
2023-04-02T06:54:03.364Z,26.50
2023-04-02T06:55:03.378Z,26.51
2023-04-02T06:56:03.359Z,26.55
2023-04-02T06:57:03.383Z,26.52
2023-04-02T06:58:03.368Z,26.54
2023-04-02T06:59:03.350Z,26.54
2023-04-02T07:00:03.364Z,26.55
2023-04-02T07:01:03.442Z,26.50
2023-04-02T07:02:03.406Z,26.55
2023-04-02T07:03:03.368Z,26.50
2023-04-02T07:04:03.360Z,26.51
2023-04-02T07:05:03.416Z,26.60
2023-04-02T07:06:03.352Z,26.54
2023-04-02T07:07:03.342Z,26.55
2023-04-02T07:08:03.350Z,26.57
2023-04-02T07:09:03.347Z,26.50
2023-04-02T07:10:03.351Z,26.51
2023-04-02T07:11:03.349Z,26.48
2023-04-02T07:12:03.360Z,26.48
2023-04-02T07:13:03.345Z,26.60
2023-04-02T07:14:03.354Z,26.52
2023-04-02T07:15:03.339Z,26.50
2023-04-02T07:16:03.405Z,26.57
2023-04-02T07:17:03.336Z,26.54
2023-04-02T07:18:03.396Z,26.55
2023-04-02T07:19:03.335Z,26.57
2023-04-02T07:20:03.346Z,26.50
2023-04-02T07:21:03.343Z,26.55
2023-04-02T07:22:03.342Z,26.62
2023-04-02T07:23:03.337Z,26.52
2023-04-02T07:24:03.344Z,26.60
2023-04-02T07:25:03.348Z,26.48
2023-04-02T07:26:03.344Z,26.57
2023-04-02T07:27:03.359Z,26.52
2023-04-02T07:28:03.340Z,26.57
2023-04-02T07:29:03.330Z,26.55
2023-04-02T07:30:03.349Z,26.58
2023-04-02T07:31:03.347Z,26.54
2023-04-02T07:32:03.345Z,26.51
2023-04-02T07:33:03.376Z,26.60
2023-04-02T07:34:03.362Z,26.60
2023-04-02T07:35:03.333Z,26.55
2023-04-02T07:36:03.440Z,26.55
2023-04-02T07:37:03.326Z,26.55
2023-04-02T07:38:03.345Z,26.55
2023-04-02T07:39:03.327Z,26.58
2023-04-02T07:40:03.337Z,26.51
2023-04-02T07:41:03.332Z,26.50
2023-04-02T07:42:03.340Z,26.58
2023-04-02T07:43:03.330Z,26.54
2023-04-02T07:44:03.333Z,26.51
2023-04-02T07:45:05.843Z,26.48
2023-04-02T07:46:03.339Z,26.50
2023-04-02T07:47:03.362Z,26.50
2023-04-02T07:48:03.362Z,26.55
2023-04-02T07:49:03.323Z,26.47
2023-04-02T07:50:03.354Z,26.50
2023-04-02T07:51:03.351Z,26.48
2023-04-02T07:52:03.332Z,26.50
2023-04-02T07:53:03.324Z,26.51
2023-04-02T07:54:03.362Z,26.51
2023-04-02T07:55:03.325Z,26.57
2023-04-02T07:56:03.336Z,26.57
2023-04-02T07:57:03.421Z,26.51
2023-04-02T07:58:03.326Z,26.54
2023-04-02T07:59:03.320Z,26.54
2023-04-02T08:00:03.327Z,26.52
2023-04-02T08:01:03.322Z,26.50
2023-04-02T08:02:03.364Z,26.60
2023-04-02T08:03:03.466Z,26.52
2023-04-02T08:04:03.407Z,26.57
2023-04-02T08:05:03.323Z,26.52
2023-04-02T08:06:03.359Z,26.55
2023-04-02T08:07:03.317Z,26.51
2023-04-02T08:08:03.327Z,26.60
2023-04-02T08:09:03.320Z,26.60
2023-04-02T08:10:03.325Z,26.62
2023-04-02T08:11:03.332Z,26.57
2023-04-02T08:12:03.475Z,26.50
2023-04-02T08:13:03.318Z,26.52
2023-04-02T08:14:03.325Z,26.57
2023-04-02T08:15:03.324Z,26.55
2023-04-02T08:16:03.330Z,26.54
2023-04-02T08:17:03.346Z,26.54
2023-04-02T08:18:03.452Z,26.52
2023-04-02T08:19:03.313Z,26.62
2023-04-02T08:20:03.432Z,26.58
2023-04-02T08:21:03.327Z,26.50
2023-04-02T08:22:03.345Z,26.54
2023-04-02T08:23:03.310Z,26.55
2023-04-02T08:24:03.320Z,26.57
2023-04-02T08:25:03.313Z,26.55
2023-04-02T08:26:03.335Z,26.51
2023-04-02T08:27:03.313Z,26.55
2023-04-02T08:28:03.342Z,26.57
2023-04-02T08:29:03.311Z,26.55
2023-04-02T08:30:03.321Z,26.62
2023-04-02T08:31:03.357Z,26.51
2023-04-02T08:32:03.349Z,26.60
2023-04-02T08:33:03.393Z,26.62
2023-04-02T08:34:03.326Z,26.51
2023-04-02T08:35:03.340Z,26.58
2023-04-02T08:36:03.354Z,26.55
2023-04-02T08:37:03.309Z,26.45
2023-04-02T08:38:03.344Z,26.57
2023-04-02T08:39:03.309Z,26.55
2023-04-02T08:40:03.321Z,26.52
2023-04-02T08:41:03.311Z,26.48
2023-04-02T08:42:03.314Z,26.57
2023-04-02T08:43:03.309Z,26.54
2023-04-02T08:44:03.314Z,26.55
2023-04-02T08:45:10.837Z,26.55
2023-04-02T08:46:03.369Z,26.54
2023-04-02T08:47:03.304Z,26.52
2023-04-02T08:48:03.673Z,26.50
2023-04-02T08:49:03.307Z,26.51
2023-04-02T08:50:03.312Z,26.52
2023-04-02T08:51:03.301Z,26.57
2023-04-02T08:52:03.308Z,26.55
2023-04-02T08:53:03.305Z,26.55
2023-04-02T08:54:03.332Z,26.58
2023-04-02T08:55:03.310Z,26.54
2023-04-02T08:56:03.309Z,26.52
2023-04-02T08:57:03.398Z,26.50
2023-04-02T08:58:03.306Z,26.55
2023-04-02T08:59:03.303Z,26.62
2023-04-02T09:00:03.311Z,26.55
2023-04-02T09:01:03.304Z,26.60
2023-04-02T09:02:03.391Z,26.62
2023-04-02T09:03:03.322Z,26.52
2023-04-02T09:04:03.322Z,26.57
2023-04-02T09:05:03.336Z,26.58
2023-04-02T09:06:03.306Z,26.55
2023-04-02T09:07:03.296Z,26.52
2023-04-02T09:08:03.303Z,26.57
2023-04-02T09:09:03.297Z,26.51
2023-04-02T09:10:03.328Z,26.52
2023-04-02T09:11:03.301Z,26.60
2023-04-02T09:12:03.312Z,26.48
2023-04-02T09:13:03.291Z,26.55
2023-04-02T09:14:03.318Z,26.48
2023-04-02T09:15:03.291Z,26.62
2023-04-02T09:16:03.364Z,26.55
2023-04-02T09:17:03.316Z,26.57
2023-04-02T09:18:03.312Z,26.60
2023-04-02T09:19:03.294Z,26.51
2023-04-02T09:20:03.305Z,26.62
2023-04-02T09:21:03.303Z,26.57
2023-04-02T09:22:03.308Z,26.55
2023-04-02T09:23:03.296Z,26.52
2023-04-02T09:24:04.052Z,26.55
2023-04-02T09:25:03.290Z,26.62
2023-04-02T09:26:04.465Z,26.58
2023-04-02T09:27:03.289Z,26.55
2023-04-02T09:28:03.304Z,26.60
2023-04-02T09:29:03.297Z,26.55
2023-04-02T09:30:03.301Z,26.57
2023-04-02T09:31:04.387Z,26.52
2023-04-02T09:32:03.349Z,26.58
2023-04-02T09:33:03.378Z,26.55
2023-04-02T09:34:03.303Z,26.48
2023-04-02T09:35:09.574Z,26.60
2023-04-02T09:36:03.338Z,26.57
2023-04-02T09:37:03.289Z,26.62
2023-04-02T09:38:03.294Z,26.60
2023-04-02T09:39:03.298Z,26.51
2023-04-02T09:40:03.298Z,26.58
2023-04-02T09:41:03.292Z,26.55
2023-04-02T09:42:06.000Z,26.62
2023-04-02T09:43:03.284Z,26.51
2023-04-02T09:44:03.290Z,26.52
2023-04-02T09:45:03.286Z,26.57
2023-04-02T09:46:03.288Z,26.57
2023-04-02T09:47:03.324Z,26.57
2023-04-02T09:48:03.321Z,26.55
2023-04-02T09:49:03.284Z,26.51
2023-04-02T09:50:03.292Z,26.54
2023-04-02T09:51:03.302Z,26.51
2023-04-02T09:52:03.289Z,26.58
2023-04-02T09:53:03.279Z,26.51
2023-04-02T09:54:03.285Z,26.62
2023-04-02T09:55:03.278Z,26.51
2023-04-02T09:56:03.284Z,26.55
2023-04-02T09:57:03.332Z,26.57
2023-04-02T09:58:03.310Z,26.54
2023-04-02T09:59:03.294Z,26.54
2023-04-02T10:00:03.289Z,26.50
2023-04-02T10:01:03.316Z,26.57
2023-04-02T10:02:03.285Z,26.54
2023-04-02T10:03:03.319Z,26.54
2023-04-02T10:04:03.337Z,26.54
2023-04-02T10:05:03.272Z,26.57
2023-04-02T10:06:03.280Z,26.58
2023-04-02T10:07:03.272Z,26.60
2023-04-02T10:08:03.283Z,26.54
2023-04-02T10:09:03.271Z,26.55
2023-04-02T10:10:03.290Z,26.57
2023-04-02T10:11:03.271Z,26.54
2023-04-02T10:12:03.280Z,26.51
2023-04-02T10:13:03.272Z,26.57
2023-04-02T10:14:03.304Z,26.55
2023-04-02T10:15:03.290Z,26.55
2023-04-02T10:16:03.284Z,26.54
2023-04-02T10:17:03.289Z,26.60
2023-04-02T10:18:03.348Z,26.54
2023-04-02T10:19:03.273Z,26.55
2023-04-02T10:20:03.277Z,26.57
2023-04-02T10:21:03.270Z,26.55
2023-04-02T10:22:03.273Z,26.54
2023-04-02T10:23:05.379Z,26.51
2023-04-02T10:24:03.284Z,26.52
2023-04-02T10:25:03.270Z,26.54
2023-04-02T10:26:03.283Z,26.52
2023-04-02T10:27:03.295Z,26.57
2023-04-02T10:28:03.274Z,26.62
2023-04-02T10:29:05.558Z,26.62
2023-04-02T10:30:03.308Z,26.52
2023-04-02T10:31:03.297Z,26.54
2023-04-02T10:32:03.276Z,26.51
2023-04-02T10:33:03.323Z,26.55
2023-04-02T10:34:03.274Z,26.51
2023-04-02T10:35:03.288Z,26.57
2023-04-02T10:36:03.328Z,26.62
2023-04-02T10:37:03.263Z,26.47
2023-04-02T10:38:03.272Z,26.55
2023-04-02T10:39:03.266Z,26.50
2023-04-02T10:40:03.270Z,26.58
2023-04-02T10:41:03.262Z,26.57
2023-04-02T10:42:03.269Z,26.57
2023-04-02T10:43:03.260Z,26.65
2023-04-02T10:44:12.575Z,26.57
2023-04-02T10:45:03.265Z,26.48
2023-04-02T10:46:03.422Z,26.54
2023-04-02T10:47:03.260Z,26.54
2023-04-02T10:48:03.351Z,26.54
2023-04-02T10:49:03.298Z,26.58
2023-04-02T10:50:03.266Z,26.54
2023-04-02T10:51:03.265Z,26.54
2023-04-02T10:52:03.294Z,26.54
2023-04-02T10:53:03.273Z,26.57
2023-04-02T10:54:03.268Z,26.48
2023-04-02T10:55:03.274Z,26.60
2023-04-02T10:56:03.273Z,26.54
2023-04-02T10:57:03.293Z,26.55
2023-04-02T10:58:03.306Z,26.57
2023-04-02T10:59:03.268Z,26.54
2023-04-02T11:00:03.267Z,26.57
2023-04-02T11:01:03.265Z,26.57
2023-04-02T11:02:03.298Z,26.58
2023-04-02T11:03:03.325Z,26.63
2023-04-02T11:04:03.261Z,26.51
2023-04-02T11:05:03.277Z,26.51
2023-04-02T11:06:03.263Z,26.63
2023-04-02T11:07:13.167Z,26.54
2023-04-02T11:08:03.254Z,26.48
2023-04-02T11:09:03.282Z,26.62
2023-04-02T11:10:03.274Z,26.57
2023-04-02T11:11:04.649Z,26.55
2023-04-02T11:12:03.258Z,26.65
2023-04-02T11:13:03.268Z,26.55
2023-04-02T11:14:03.251Z,26.52
2023-04-02T11:15:03.261Z,26.55
2023-04-02T11:16:03.264Z,26.48
2023-04-02T11:17:03.278Z,26.54
2023-04-02T11:18:03.359Z,26.62
2023-04-02T11:19:03.256Z,26.57
2023-04-02T11:20:03.255Z,26.57
2023-04-02T11:21:03.269Z,26.60
2023-04-02T11:22:05.193Z,26.48
2023-04-02T11:23:03.254Z,26.52
2023-04-02T11:24:03.250Z,26.58
2023-04-02T11:25:03.260Z,26.52
2023-04-02T11:26:03.245Z,26.48
2023-04-02T11:27:03.252Z,26.48
2023-04-02T11:28:03.246Z,26.51
2023-04-02T11:29:03.279Z,26.48
2023-04-02T11:30:03.253Z,26.52
2023-04-02T11:31:03.302Z,26.54
2023-04-02T11:32:03.242Z,26.57
2023-04-02T11:33:03.302Z,26.51
2023-04-02T11:34:03.268Z,26.60
2023-04-02T11:35:07.495Z,26.55
2023-04-02T11:36:03.285Z,26.58
2023-04-02T11:37:03.251Z,26.66
2023-04-02T11:38:03.241Z,26.58
2023-04-02T11:39:11.010Z,26.52
2023-04-02T11:40:03.246Z,26.55
2023-04-02T11:41:03.253Z,26.62
2023-04-02T11:42:03.246Z,26.55
2023-04-02T11:43:03.249Z,26.67
2023-04-02T11:44:03.241Z,26.55
2023-04-02T11:45:03.248Z,26.50
2023-04-02T11:46:03.239Z,26.54
2023-04-02T11:47:03.291Z,26.52
2023-04-02T11:48:03.264Z,26.58
2023-04-02T11:49:03.259Z,26.54
2023-04-02T11:50:03.271Z,26.65
2023-04-02T11:51:03.246Z,26.67
2023-04-02T11:52:11.918Z,26.58
2023-04-02T11:53:03.255Z,26.57
2023-04-02T11:54:03.239Z,26.58
2023-04-02T11:55:03.256Z,26.58
2023-04-02T11:56:03.237Z,26.54
2023-04-02T11:57:03.275Z,26.55
2023-04-02T11:58:03.238Z,26.57
2023-04-02T11:59:03.240Z,26.54
2023-04-02T12:00:03.234Z,26.51
2023-04-02T12:01:03.250Z,26.52
2023-04-02T12:02:03.255Z,26.55
2023-04-02T12:03:03.245Z,26.57
2023-04-02T12:04:03.231Z,26.54
2023-04-02T12:05:03.272Z,26.54
2023-04-02T12:06:04.354Z,26.54
2023-04-02T12:07:03.269Z,26.58
2023-04-02T12:08:03.226Z,26.50
2023-04-02T12:09:03.237Z,26.55
2023-04-02T12:10:03.225Z,26.52
2023-04-02T12:11:03.239Z,26.51
2023-04-02T12:12:03.237Z,26.51
2023-04-02T12:13:03.236Z,26.54
2023-04-02T12:14:03.224Z,26.55
2023-04-02T12:15:03.231Z,26.62
2023-04-02T12:16:03.221Z,26.52
2023-04-02T12:18:03.354Z,26.54
2023-04-02T12:19:03.227Z,26.51
2023-04-02T12:20:05.595Z,26.55
2023-04-02T12:21:03.233Z,26.57
2023-04-02T12:22:03.248Z,26.52
2023-04-02T12:23:03.227Z,26.57
2023-04-02T12:24:03.234Z,26.57
2023-04-02T12:25:03.228Z,26.58
2023-04-02T12:26:03.220Z,26.55
2023-04-02T12:27:03.229Z,26.55
2023-04-02T12:28:03.220Z,26.52
2023-04-02T12:29:03.225Z,26.52
2023-04-02T12:30:03.220Z,26.55
2023-04-02T12:31:03.328Z,26.51
2023-04-02T12:32:03.227Z,26.55
2023-04-02T12:33:03.251Z,26.54
2023-04-02T12:34:03.215Z,26.67
2023-04-02T12:35:03.230Z,26.57
2023-04-02T12:36:03.265Z,26.48
2023-04-02T12:37:03.226Z,26.58
2023-04-02T12:38:03.242Z,26.55
2023-04-02T12:39:03.223Z,26.52
2023-04-02T12:40:03.212Z,26.48
2023-04-02T12:41:03.228Z,26.54
2023-04-02T12:42:03.212Z,26.55
2023-04-02T12:43:03.219Z,26.50
2023-04-02T12:44:03.211Z,26.57
2023-04-02T12:45:03.222Z,26.50
2023-04-02T12:46:03.267Z,26.51
2023-04-02T12:47:03.217Z,26.57
2023-04-02T12:48:03.258Z,26.57
2023-04-02T12:49:03.222Z,26.55
2023-04-02T12:50:03.210Z,26.57
2023-04-02T12:51:03.228Z,26.55
2023-04-02T12:52:03.210Z,26.55
2023-04-02T12:53:03.239Z,26.55